sensor_id;sensor_type;location;lat;lon;timestamp;P1;durP1;ratioP1;P2;durP2;ratioP2
15931;SDS011;8065;49.520;11.284;2023-11-21T00:01:34;3.83;;;1.63;;
15931;SDS011;8065;49.520;11.284;2023-11-21T00:04:03;1.60;;;1.20;;
15931;SDS011;8065;49.520;11.284;2023-11-21T00:06:32;3.03;;;1.40;;
15931;SDS011;8065;49.520;11.284;2023-11-21T00:09:03;1.87;;;1.40;;
15931;SDS011;8065;49.520;11.284;2023-11-21T00:11:33;3.03;;;1.20;;
15931;SDS011;8065;49.520;11.284;2023-11-21T00:14:03;3.90;;;1.30;;
15931;SDS011;8065;49.520;11.284;2023-11-21T00:16:32;1.90;;;1.20;;
15931;SDS011;8065;49.520;11.284;2023-11-21T00:19:00;0.90;;;0.87;;
15931;SDS011;8065;49.520;11.284;2023-11-21T00:21:28;1.73;;;1.00;;
15931;SDS011;8065;49.520;11.284;2023-11-21T00:23:57;2.87;;;1.03;;
15931;SDS011;8065;49.520;11.284;2023-11-21T00:26:28;4.30;;;1.20;;
15931;SDS011;8065;49.520;11.284;2023-11-21T00:29:01;2.70;;;1.00;;
15931;SDS011;8065;49.520;11.284;2023-11-21T00:31:33;1.80;;;1.00;;
15931;SDS011;8065;49.520;11.284;2023-11-21T00:34:02;2.73;;;1.20;;
15931;SDS011;8065;49.520;11.284;2023-11-21T00:36:30;1.13;;;1.10;;
15931;SDS011;8065;49.520;11.284;2023-11-21T00:38:59;2.00;;;1.10;;
15931;SDS011;8065;49.520;11.284;2023-11-21T00:41:31;2.67;;;1.23;;
15931;SDS011;8065;49.520;11.284;2023-11-21T00:44:01;3.10;;;1.17;;
15931;SDS011;8065;49.520;11.284;2023-11-21T00:46:29;2.77;;;1.20;;
15931;SDS011;8065;49.520;11.284;2023-11-21T00:48:58;1.60;;;1.10;;
15931;SDS011;8065;49.520;11.284;2023-11-21T00:51:26;1.93;;;1.30;;
15931;SDS011;8065;49.520;11.284;2023-11-21T00:53:54;3.13;;;1.30;;
15931;SDS011;8065;49.520;11.284;2023-11-21T00:56:23;1.70;;;1.50;;
15931;SDS011;8065;49.520;11.284;2023-11-21T00:58:54;2.50;;;1.50;;
15931;SDS011;8065;49.520;11.284;2023-11-21T01:01:22;2.17;;;1.40;;
15931;SDS011;8065;49.520;11.284;2023-11-21T01:03:50;2.83;;;1.40;;
15931;SDS011;8065;49.520;11.284;2023-11-21T01:06:19;2.47;;;1.43;;
15931;SDS011;8065;49.520;11.284;2023-11-21T01:08:47;1.93;;;1.10;;
15931;SDS011;8065;49.520;11.284;2023-11-21T01:11:15;0.70;;;0.70;;
15931;SDS011;8065;49.520;11.284;2023-11-21T01:13:44;1.77;;;0.93;;
15931;SDS011;8065;49.520;11.284;2023-11-21T01:16:15;1.13;;;0.87;;
15931;SDS011;8065;49.520;11.284;2023-11-21T01:18:43;2.63;;;0.70;;
15931;SDS011;8065;49.520;11.284;2023-11-21T01:21:11;0.90;;;0.80;;
15931;SDS011;8065;49.520;11.284;2023-11-21T01:23:40;0.80;;;0.80;;
15931;SDS011;8065;49.520;11.284;2023-11-21T01:26:08;2.03;;;0.97;;
15931;SDS011;8065;49.520;11.284;2023-11-21T01:28:36;0.80;;;0.80;;
15931;SDS011;8065;49.520;11.284;2023-11-21T01:31:05;1.50;;;0.90;;
15931;SDS011;8065;49.520;11.284;2023-11-21T01:33:36;1.13;;;0.80;;
15931;SDS011;8065;49.520;11.284;2023-11-21T01:36:04;1.47;;;1.10;;
15931;SDS011;8065;49.520;11.284;2023-11-21T01:38:33;2.57;;;0.90;;
15931;SDS011;8065;49.520;11.284;2023-11-21T01:41:02;1.10;;;0.90;;
15931;SDS011;8065;49.520;11.284;2023-11-21T01:43:31;1.03;;;0.90;;
15931;SDS011;8065;49.520;11.284;2023-11-21T01:45:59;2.80;;;1.10;;
15931;SDS011;8065;49.520;11.284;2023-11-21T01:48:28;2.70;;;1.00;;
15931;SDS011;8065;49.520;11.284;2023-11-21T01:50:59;1.83;;;1.17;;
15931;SDS011;8065;49.520;11.284;2023-11-21T01:53:28;1.13;;;1.13;;
15931;SDS011;8065;49.520;11.284;2023-11-21T01:55:56;1.70;;;1.33;;
15931;SDS011;8065;49.520;11.284;2023-11-21T01:58:25;2.90;;;1.47;;
15931;SDS011;8065;49.520;11.284;2023-11-21T02:00:53;1.10;;;1.00;;
15931;SDS011;8065;49.520;11.284;2023-11-21T02:03:21;1.20;;;1.20;;
15931;SDS011;8065;49.520;11.284;2023-11-21T02:05:51;1.20;;;1.10;;
15931;SDS011;8065;49.520;11.284;2023-11-21T02:08:22;1.93;;;1.37;;
15931;SDS011;8065;49.520;11.284;2023-11-21T02:10:52;3.00;;;1.57;;
15931;SDS011;8065;49.520;11.284;2023-11-21T02:13:20;2.10;;;1.37;;
15931;SDS011;8065;49.520;11.284;2023-11-21T02:15:48;2.47;;;1.40;;
15931;SDS011;8065;49.520;11.284;2023-11-21T02:18:19;3.97;;;1.73;;
15931;SDS011;8065;49.520;11.284;2023-11-21T02:20:47;1.83;;;1.30;;
15931;SDS011;8065;49.520;11.284;2023-11-21T02:23:18;1.53;;;1.17;;
15931;SDS011;8065;49.520;11.284;2023-11-21T02:25:48;3.27;;;1.33;;
15931;SDS011;8065;49.520;11.284;2023-11-21T02:28:16;2.73;;;1.57;;
15931;SDS011;8065;49.520;11.284;2023-11-21T02:30:50;1.70;;;1.07;;
15931;SDS011;8065;49.520;11.284;2023-11-21T02:33:20;4.07;;;1.40;;
15931;SDS011;8065;49.520;11.284;2023-11-21T02:35:49;2.17;;;1.37;;
15931;SDS011;8065;49.520;11.284;2023-11-21T02:38:22;1.77;;;1.27;;
15931;SDS011;8065;49.520;11.284;2023-11-21T02:40:50;1.50;;;1.40;;
15931;SDS011;8065;49.520;11.284;2023-11-21T02:43:18;2.80;;;1.30;;
15931;SDS011;8065;49.520;11.284;2023-11-21T02:45:47;1.97;;;1.57;;
15931;SDS011;8065;49.520;11.284;2023-11-21T02:48:15;2.93;;;1.50;;
15931;SDS011;8065;49.520;11.284;2023-11-21T02:50:43;2.10;;;1.20;;
15931;SDS011;8065;49.520;11.284;2023-11-21T02:53:12;2.20;;;1.30;;
15931;SDS011;8065;49.520;11.284;2023-11-21T02:55:43;3.40;;;1.53;;
15931;SDS011;8065;49.520;11.284;2023-11-21T02:58:11;3.30;;;1.53;;
15931;SDS011;8065;49.520;11.284;2023-11-21T03:00:39;2.27;;;1.30;;
15931;SDS011;8065;49.520;11.284;2023-11-21T03:03:08;4.10;;;1.40;;
15931;SDS011;8065;49.520;11.284;2023-11-21T03:05:36;1.30;;;1.20;;
15931;SDS011;8065;49.520;11.284;2023-11-21T03:08:04;1.20;;;1.10;;
15931;SDS011;8065;49.520;11.284;2023-11-21T03:10:33;1.43;;;1.03;;
15931;SDS011;8065;49.520;11.284;2023-11-21T03:13:03;2.87;;;1.27;;
15931;SDS011;8065;49.520;11.284;2023-11-21T03:15:32;2.73;;;1.10;;
15931;SDS011;8065;49.520;11.284;2023-11-21T03:18:00;2.50;;;1.13;;
15931;SDS011;8065;49.520;11.284;2023-11-21T03:20:30;2.63;;;1.20;;
15931;SDS011;8065;49.520;11.284;2023-11-21T03:22:58;1.77;;;0.97;;
15931;SDS011;8065;49.520;11.284;2023-11-21T03:25:27;2.73;;;1.03;;
15931;SDS011;8065;49.520;11.284;2023-11-21T03:27:56;3.30;;;1.13;;
15931;SDS011;8065;49.520;11.284;2023-11-21T03:30:26;1.53;;;1.07;;
15931;SDS011;8065;49.520;11.284;2023-11-21T03:32:55;1.47;;;1.00;;
15931;SDS011;8065;49.520;11.284;2023-11-21T03:35:23;3.13;;;1.30;;
15931;SDS011;8065;49.520;11.284;2023-11-21T03:37:52;2.43;;;1.10;;
15931;SDS011;8065;49.520;11.284;2023-11-21T03:40:21;1.53;;;1.03;;
15931;SDS011;8065;49.520;11.284;2023-11-21T03:42:49;1.40;;;1.30;;
15931;SDS011;8065;49.520;11.284;2023-11-21T03:45:18;1.53;;;1.10;;
15931;SDS011;8065;49.520;11.284;2023-11-21T03:47:49;2.77;;;1.50;;
15931;SDS011;8065;49.520;11.284;2023-11-21T03:50:17;2.03;;;1.20;;
15931;SDS011;8065;49.520;11.284;2023-11-21T03:52:46;1.33;;;1.17;;
15931;SDS011;8065;49.520;11.284;2023-11-21T03:55:14;1.33;;;1.20;;
15931;SDS011;8065;49.520;11.284;2023-11-21T03:57:42;1.33;;;1.20;;
15931;SDS011;8065;49.520;11.284;2023-11-21T04:00:11;2.90;;;1.40;;
15931;SDS011;8065;49.520;11.284;2023-11-21T04:02:40;2.13;;;1.20;;
15931;SDS011;8065;49.520;11.284;2023-11-21T04:05:11;1.60;;;1.47;;
15931;SDS011;8065;49.520;11.284;2023-11-21T04:07:39;2.60;;;1.60;;
15931;SDS011;8065;49.520;11.284;2023-11-21T04:10:08;1.50;;;1.40;;
15931;SDS011;8065;49.520;11.284;2023-11-21T04:12:38;1.93;;;1.30;;
15931;SDS011;8065;49.520;11.284;2023-11-21T04:15:07;3.20;;;1.60;;
15931;SDS011;8065;49.520;11.284;2023-11-21T04:17:37;3.40;;;1.30;;
15931;SDS011;8065;49.520;11.284;2023-11-21T04:20:06;1.57;;;1.37;;
15931;SDS011;8065;49.520;11.284;2023-11-21T04:22:39;3.93;;;1.50;;
15931;SDS011;8065;49.520;11.284;2023-11-21T04:25:11;1.50;;;1.40;;
15931;SDS011;8065;49.520;11.284;2023-11-21T04:27:41;2.47;;;1.40;;
15931;SDS011;8065;49.520;11.284;2023-11-21T04:30:11;1.83;;;1.60;;
15931;SDS011;8065;49.520;11.284;2023-11-21T04:32:41;4.00;;;1.60;;
15931;SDS011;8065;49.520;11.284;2023-11-21T04:35:09;2.30;;;1.60;;
15931;SDS011;8065;49.520;11.284;2023-11-21T04:37:40;3.27;;;1.80;;
15931;SDS011;8065;49.520;11.284;2023-11-21T04:40:09;3.80;;;1.70;;
15931;SDS011;8065;49.520;11.284;2023-11-21T04:42:38;2.97;;;1.60;;
15931;SDS011;8065;49.520;11.284;2023-11-21T04:45:07;2.47;;;1.90;;
15931;SDS011;8065;49.520;11.284;2023-11-21T04:47:36;2.03;;;1.67;;
15931;SDS011;8065;49.520;11.284;2023-11-21T04:50:05;3.43;;;1.87;;
15931;SDS011;8065;49.520;11.284;2023-11-21T04:52:34;3.33;;;1.77;;
15931;SDS011;8065;49.520;11.284;2023-11-21T04:55:05;4.27;;;2.00;;
15931;SDS011;8065;49.520;11.284;2023-11-21T04:57:35;4.63;;;2.00;;
15931;SDS011;8065;49.520;11.284;2023-11-21T05:00:03;4.20;;;2.00;;
15931;SDS011;8065;49.520;11.284;2023-11-21T05:02:33;3.83;;;1.90;;
15931;SDS011;8065;49.520;11.284;2023-11-21T05:05:03;2.27;;;1.80;;
15931;SDS011;8065;49.520;11.284;2023-11-21T05:07:32;3.23;;;1.80;;
15931;SDS011;8065;49.520;11.284;2023-11-21T05:10:01;4.33;;;2.30;;
15931;SDS011;8065;49.520;11.284;2023-11-21T05:12:35;6.07;;;2.30;;
15931;SDS011;8065;49.520;11.284;2023-11-21T05:15:05;2.97;;;2.30;;
15931;SDS011;8065;49.520;11.284;2023-11-21T05:17:35;3.33;;;2.50;;
15931;SDS011;8065;49.520;11.284;2023-11-21T05:20:05;2.90;;;2.27;;
15931;SDS011;8065;49.520;11.284;2023-11-21T05:22:37;3.83;;;2.20;;
15931;SDS011;8065;49.520;11.284;2023-11-21T05:25:07;2.40;;;2.20;;
15931;SDS011;8065;49.520;11.284;2023-11-21T05:27:39;3.03;;;2.13;;
15931;SDS011;8065;49.520;11.284;2023-11-21T05:30:07;5.37;;;2.73;;
15931;SDS011;8065;49.520;11.284;2023-11-21T05:32:37;4.77;;;2.90;;
15931;SDS011;8065;49.520;11.284;2023-11-21T05:35:07;5.03;;;2.87;;
15931;SDS011;8065;49.520;11.284;2023-11-21T05:37:40;4.07;;;3.03;;
15931;SDS011;8065;49.520;11.284;2023-11-21T05:40:09;3.77;;;3.00;;
15931;SDS011;8065;49.520;11.284;2023-11-21T05:42:40;3.23;;;2.90;;
15931;SDS011;8065;49.520;11.284;2023-11-21T05:45:09;6.63;;;3.33;;
15931;SDS011;8065;49.520;11.284;2023-11-21T05:47:38;6.33;;;3.57;;
15931;SDS011;8065;49.520;11.284;2023-11-21T05:50:08;4.67;;;3.10;;
15931;SDS011;8065;49.520;11.284;2023-11-21T05:52:40;9.23;;;3.37;;
15931;SDS011;8065;49.520;11.284;2023-11-21T05:55:09;3.57;;;3.00;;
15931;SDS011;8065;49.520;11.284;2023-11-21T05:57:41;5.03;;;3.10;;
15931;SDS011;8065;49.520;11.284;2023-11-21T06:00:11;4.63;;;3.10;;
15931;SDS011;8065;49.520;11.284;2023-11-21T06:02:45;4.30;;;3.50;;
15931;SDS011;8065;49.520;11.284;2023-11-21T06:05:15;5.37;;;4.13;;
15931;SDS011;8065;49.520;11.284;2023-11-21T06:07:45;5.30;;;4.27;;
15931;SDS011;8065;49.520;11.284;2023-11-21T06:10:13;6.67;;;4.43;;
15931;SDS011;8065;49.520;11.284;2023-11-21T06:12:47;4.80;;;4.00;;
15931;SDS011;8065;49.520;11.284;2023-11-21T06:15:15;4.33;;;3.87;;
15931;SDS011;8065;49.520;11.284;2023-11-21T06:17:44;5.60;;;3.47;;
15931;SDS011;8065;49.520;11.284;2023-11-21T06:20:17;4.33;;;3.87;;
15931;SDS011;8065;49.520;11.284;2023-11-21T06:22:46;8.57;;;4.87;;
15931;SDS011;8065;49.520;11.284;2023-11-21T06:25:16;8.37;;;4.57;;
15931;SDS011;8065;49.520;11.284;2023-11-21T06:27:47;5.67;;;4.27;;
15931;SDS011;8065;49.520;11.284;2023-11-21T06:30:16;6.73;;;4.73;;
15931;SDS011;8065;49.520;11.284;2023-11-21T06:32:45;4.93;;;4.27;;
15931;SDS011;8065;49.520;11.284;2023-11-21T06:35:13;5.77;;;4.70;;
15931;SDS011;8065;49.520;11.284;2023-11-21T06:37:42;6.30;;;4.33;;
15931;SDS011;8065;49.520;11.284;2023-11-21T06:40:13;7.03;;;4.67;;
15931;SDS011;8065;49.520;11.284;2023-11-21T06:42:43;5.47;;;4.40;;
15931;SDS011;8065;49.520;11.284;2023-11-21T06:45:14;6.03;;;4.30;;
15931;SDS011;8065;49.520;11.284;2023-11-21T06:47:43;7.27;;;4.50;;
15931;SDS011;8065;49.520;11.284;2023-11-21T06:50:12;5.90;;;4.40;;
15931;SDS011;8065;49.520;11.284;2023-11-21T06:52:40;5.00;;;4.43;;
15931;SDS011;8065;49.520;11.284;2023-11-21T06:55:06;5.73;;;4.37;;
15931;SDS011;8065;49.520;11.284;2023-11-21T06:57:35;5.03;;;4.40;;
15931;SDS011;8065;49.520;11.284;2023-11-21T07:00:04;6.37;;;4.83;;
15931;SDS011;8065;49.520;11.284;2023-11-21T07:02:36;6.40;;;4.37;;
15931;SDS011;8065;49.520;11.284;2023-11-21T07:05:05;5.10;;;4.17;;
15931;SDS011;8065;49.520;11.284;2023-11-21T07:07:34;5.03;;;4.47;;
15931;SDS011;8065;49.520;11.284;2023-11-21T07:10:04;4.80;;;3.80;;
15931;SDS011;8065;49.520;11.284;2023-11-21T07:12:33;6.77;;;4.30;;
15931;SDS011;8065;49.520;11.284;2023-11-21T07:15:02;5.17;;;4.57;;
15931;SDS011;8065;49.520;11.284;2023-11-21T07:17:36;4.80;;;4.33;;
15931;SDS011;8065;49.520;11.284;2023-11-21T07:20:05;4.73;;;4.23;;
15931;SDS011;8065;49.520;11.284;2023-11-21T07:22:34;6.00;;;4.47;;
15931;SDS011;8065;49.520;11.284;2023-11-21T07:25:03;7.07;;;4.63;;
15931;SDS011;8065;49.520;11.284;2023-11-21T07:27:32;6.53;;;4.97;;
15931;SDS011;8065;49.520;11.284;2023-11-21T07:30:02;5.53;;;4.57;;
15931;SDS011;8065;49.520;11.284;2023-11-21T07:32:33;6.47;;;4.57;;
15931;SDS011;8065;49.520;11.284;2023-11-21T07:35:05;5.13;;;4.27;;
15931;SDS011;8065;49.520;11.284;2023-11-21T07:37:33;5.83;;;4.10;;
15931;SDS011;8065;49.520;11.284;2023-11-21T07:40:02;4.50;;;4.10;;
15931;SDS011;8065;49.520;11.284;2023-11-21T07:42:30;6.13;;;4.93;;
15931;SDS011;8065;49.520;11.284;2023-11-21T07:44:59;6.13;;;4.63;;
15931;SDS011;8065;49.520;11.284;2023-11-21T07:47:27;5.37;;;4.83;;
15931;SDS011;8065;49.520;11.284;2023-11-21T07:49:59;7.00;;;4.90;;
15931;SDS011;8065;49.520;11.284;2023-11-21T07:52:30;4.97;;;4.37;;
15931;SDS011;8065;49.520;11.284;2023-11-21T07:54:58;4.83;;;4.43;;
15931;SDS011;8065;49.520;11.284;2023-11-21T07:57:27;8.53;;;5.70;;
15931;SDS011;8065;49.520;11.284;2023-11-21T07:59:55;6.57;;;5.30;;
15931;SDS011;8065;49.520;11.284;2023-11-21T08:02:23;5.87;;;5.20;;
15931;SDS011;8065;49.520;11.284;2023-11-21T08:04:52;7.57;;;5.43;;
15931;SDS011;8065;49.520;11.284;2023-11-21T08:07:21;5.40;;;4.90;;
15931;SDS011;8065;49.520;11.284;2023-11-21T08:09:53;8.30;;;5.93;;
15931;SDS011;8065;49.520;11.284;2023-11-21T08:12:21;7.50;;;6.10;;
15931;SDS011;8065;49.520;11.284;2023-11-21T08:14:52;6.37;;;5.70;;
15931;SDS011;8065;49.520;11.284;2023-11-21T08:17:21;6.93;;;5.93;;
15931;SDS011;8065;49.520;11.284;2023-11-21T08:19:49;6.90;;;6.20;;
15931;SDS011;8065;49.520;11.284;2023-11-21T08:22:17;8.63;;;5.83;;
15931;SDS011;8065;49.520;11.284;2023-11-21T08:24:46;8.47;;;6.23;;
15931;SDS011;8065;49.520;11.284;2023-11-21T08:27:17;8.40;;;6.13;;
15931;SDS011;8065;49.520;11.284;2023-11-21T08:29:45;6.53;;;5.90;;
15931;SDS011;8065;49.520;11.284;2023-11-21T08:32:14;7.90;;;5.50;;
15931;SDS011;8065;49.520;11.284;2023-11-21T08:34:42;6.40;;;5.50;;
15931;SDS011;8065;49.520;11.284;2023-11-21T08:37:11;8.43;;;5.67;;
15931;SDS011;8065;49.520;11.284;2023-11-21T08:39:43;8.07;;;4.90;;
15931;SDS011;8065;49.520;11.284;2023-11-21T08:42:11;6.33;;;5.33;;
15931;SDS011;8065;49.520;11.284;2023-11-21T08:44:42;6.03;;;5.17;;
15931;SDS011;8065;49.520;11.284;2023-11-21T08:47:10;5.97;;;5.33;;
15931;SDS011;8065;49.520;11.284;2023-11-21T08:49:39;5.97;;;5.30;;
15931;SDS011;8065;49.520;11.284;2023-11-21T08:52:07;7.40;;;5.77;;
15931;SDS011;8065;49.520;11.284;2023-11-21T08:54:37;8.00;;;5.77;;
15931;SDS011;8065;49.520;11.284;2023-11-21T08:57:05;6.87;;;6.10;;
15931;SDS011;8065;49.520;11.284;2023-11-21T08:59:34;6.43;;;5.37;;
15931;SDS011;8065;49.520;11.284;2023-11-21T09:02:04;7.53;;;5.10;;
15931;SDS011;8065;49.520;11.284;2023-11-21T09:04:33;5.23;;;4.73;;
15931;SDS011;8065;49.520;11.284;2023-11-21T09:07:01;6.23;;;4.80;;
15931;SDS011;8065;49.520;11.284;2023-11-21T09:09:30;5.50;;;5.00;;
15931;SDS011;8065;49.520;11.284;2023-11-21T09:11:59;6.10;;;4.70;;
15931;SDS011;8065;49.520;11.284;2023-11-21T09:14:27;5.50;;;4.93;;
15931;SDS011;8065;49.520;11.284;2023-11-21T09:16:55;5.80;;;5.20;;
15931;SDS011;8065;49.520;11.284;2023-11-21T09:19:26;6.10;;;5.23;;
15931;SDS011;8065;49.520;11.284;2023-11-21T09:21:54;7.30;;;5.07;;
15931;SDS011;8065;49.520;11.284;2023-11-21T09:24:22;5.43;;;4.93;;
15931;SDS011;8065;49.520;11.284;2023-11-21T09:26:51;5.90;;;4.97;;
15931;SDS011;8065;49.520;11.284;2023-11-21T09:29:19;6.20;;;4.90;;
15931;SDS011;8065;49.520;11.284;2023-11-21T09:31:47;6.20;;;4.43;;
15931;SDS011;8065;49.520;11.284;2023-11-21T09:34:16;6.63;;;4.70;;
15931;SDS011;8065;49.520;11.284;2023-11-21T09:36:47;6.70;;;5.20;;
15931;SDS011;8065;49.520;11.284;2023-11-21T09:39:16;5.10;;;4.60;;
15931;SDS011;8065;49.520;11.284;2023-11-21T09:41:44;5.40;;;4.40;;
15931;SDS011;8065;49.520;11.284;2023-11-21T09:44:17;5.50;;;4.70;;
15931;SDS011;8065;49.520;11.284;2023-11-21T09:46:48;7.57;;;5.13;;
15931;SDS011;8065;49.520;11.284;2023-11-21T09:49:20;5.70;;;4.67;;
15931;SDS011;8065;49.520;11.284;2023-11-21T09:51:55;5.67;;;4.60;;
15931;SDS011;8065;49.520;11.284;2023-11-21T09:54:24;6.87;;;4.17;;
15931;SDS011;8065;49.520;11.284;2023-11-21T09:56:54;4.50;;;4.10;;
15931;SDS011;8065;49.520;11.284;2023-11-21T09:59:23;5.90;;;4.07;;
15931;SDS011;8065;49.520;11.284;2023-11-21T10:01:52;5.87;;;5.00;;
15931;SDS011;8065;49.520;11.284;2023-11-21T10:04:20;5.17;;;4.60;;
15931;SDS011;8065;49.520;11.284;2023-11-21T10:06:48;6.37;;;5.27;;
15931;SDS011;8065;49.520;11.284;2023-11-21T10:09:21;4.93;;;4.53;;
15931;SDS011;8065;49.520;11.284;2023-11-21T10:11:52;4.80;;;4.40;;
15931;SDS011;8065;49.520;11.284;2023-11-21T10:14:22;4.57;;;3.90;;
15931;SDS011;8065;49.520;11.284;2023-11-21T10:16:54;6.13;;;5.53;;
15931;SDS011;8065;49.520;11.284;2023-11-21T10:19:24;4.67;;;3.70;;
15931;SDS011;8065;49.520;11.284;2023-11-21T10:21:54;3.60;;;3.23;;
15931;SDS011;8065;49.520;11.284;2023-11-21T10:24:25;6.00;;;4.03;;
15931;SDS011;8065;49.520;11.284;2023-11-21T10:26:53;4.50;;;4.00;;
15931;SDS011;8065;49.520;11.284;2023-11-21T10:29:22;4.37;;;3.90;;
15931;SDS011;8065;49.520;11.284;2023-11-21T10:31:52;5.03;;;3.50;;
15931;SDS011;8065;49.520;11.284;2023-11-21T10:34:22;3.70;;;3.40;;
15931;SDS011;8065;49.520;11.284;2023-11-21T10:36:52;3.27;;;3.00;;
15931;SDS011;8065;49.520;11.284;2023-11-21T10:39:25;3.10;;;2.83;;
15931;SDS011;8065;49.520;11.284;2023-11-21T10:41:56;3.57;;;2.77;;
15931;SDS011;8065;49.520;11.284;2023-11-21T10:44:24;2.93;;;2.73;;
15931;SDS011;8065;49.520;11.284;2023-11-21T10:46:53;4.63;;;3.90;;
15931;SDS011;8065;49.520;11.284;2023-11-21T10:49:22;3.97;;;3.33;;
15931;SDS011;8065;49.520;11.284;2023-11-21T10:51:52;3.10;;;2.87;;
15931;SDS011;8065;49.520;11.284;2023-11-21T10:54:21;2.70;;;2.43;;
15931;SDS011;8065;49.520;11.284;2023-11-21T10:56:53;2.07;;;1.97;;
15931;SDS011;8065;49.520;11.284;2023-11-21T10:59:26;2.73;;;2.33;;
15931;SDS011;8065;49.520;11.284;2023-11-21T11:01:57;2.67;;;2.27;;
15931;SDS011;8065;49.520;11.284;2023-11-21T11:04:28;3.17;;;2.73;;
15931;SDS011;8065;49.520;11.284;2023-11-21T11:06:57;3.33;;;2.63;;
15931;SDS011;8065;49.520;11.284;2023-11-21T11:09:29;5.00;;;3.00;;
15931;SDS011;8065;49.520;11.284;2023-11-21T11:12:02;3.30;;;3.00;;
15931;SDS011;8065;49.520;11.284;2023-11-21T11:14:31;3.27;;;2.97;;
15931;SDS011;8065;49.520;11.284;2023-11-21T11:17:00;3.47;;;3.00;;
15931;SDS011;8065;49.520;11.284;2023-11-21T11:19:30;4.73;;;3.30;;
15931;SDS011;8065;49.520;11.284;2023-11-21T11:22:00;3.33;;;3.03;;
15931;SDS011;8065;49.520;11.284;2023-11-21T11:24:58;4.90;;;3.30;;
15931;SDS011;8065;49.520;11.284;2023-11-21T11:27:47;4.20;;;3.10;;
15931;SDS011;8065;49.520;11.284;2023-11-21T11:30:26;2.90;;;2.70;;
15931;SDS011;8065;49.520;11.284;2023-11-21T11:33:07;2.70;;;2.50;;
15931;SDS011;8065;49.520;11.284;2023-11-21T11:35:41;2.67;;;2.43;;
15931;SDS011;8065;49.520;11.284;2023-11-21T11:38:19;2.47;;;2.23;;
15931;SDS011;8065;49.520;11.284;2023-11-21T11:40:52;3.33;;;2.30;;
15931;SDS011;8065;49.520;11.284;2023-11-21T11:43:29;3.03;;;2.30;;
15931;SDS011;8065;49.520;11.284;2023-11-21T11:45:58;2.60;;;2.40;;
15931;SDS011;8065;49.520;11.284;2023-11-21T11:48:28;2.53;;;2.10;;
15931;SDS011;8065;49.520;11.284;2023-11-21T11:51:03;2.73;;;2.07;;
15931;SDS011;8065;49.520;11.284;2023-11-21T11:53:37;2.57;;;2.37;;
15931;SDS011;8065;49.520;11.284;2023-11-21T11:56:19;2.87;;;2.00;;
15931;SDS011;8065;49.520;11.284;2023-11-21T11:58:53;1.93;;;1.70;;
15931;SDS011;8065;49.520;11.284;2023-11-21T12:01:24;2.73;;;1.50;;
15931;SDS011;8065;49.520;11.284;2023-11-21T12:06:56;2.43;;;1.67;;
15931;SDS011;8065;49.520;11.284;2023-11-21T12:09:28;2.30;;;1.97;;
15931;SDS011;8065;49.520;11.284;2023-11-21T12:11:58;2.40;;;2.20;;
15931;SDS011;8065;49.520;11.284;2023-11-21T12:14:30;2.20;;;2.00;;
15931;SDS011;8065;49.520;11.284;2023-11-21T12:16:59;3.20;;;2.90;;
15931;SDS011;8065;49.520;11.284;2023-11-21T12:19:29;2.97;;;2.53;;
15931;SDS011;8065;49.520;11.284;2023-11-21T12:21:58;3.93;;;2.70;;
15931;SDS011;8065;49.520;11.284;2023-11-21T12:24:27;2.67;;;2.40;;
15931;SDS011;8065;49.520;11.284;2023-11-21T12:26:55;2.83;;;2.23;;
15931;SDS011;8065;49.520;11.284;2023-11-21T12:29:23;2.60;;;2.40;;
15931;SDS011;8065;49.520;11.284;2023-11-21T12:31:57;3.77;;;2.60;;
15931;SDS011;8065;49.520;11.284;2023-11-21T12:34:25;3.13;;;2.73;;
15931;SDS011;8065;49.520;11.284;2023-11-21T12:36:53;4.60;;;2.50;;
15931;SDS011;8065;49.520;11.284;2023-11-21T12:39:22;2.30;;;2.10;;
15931;SDS011;8065;49.520;11.284;2023-11-21T12:41:50;3.13;;;2.50;;
15931;SDS011;8065;49.520;11.284;2023-11-21T12:44:19;2.77;;;2.53;;
15931;SDS011;8065;49.520;11.284;2023-11-21T12:46:47;2.60;;;2.40;;
15931;SDS011;8065;49.520;11.284;2023-11-21T12:49:20;4.27;;;2.50;;
15931;SDS011;8065;49.520;11.284;2023-11-21T12:51:48;4.93;;;2.50;;
15931;SDS011;8065;49.520;11.284;2023-11-21T12:54:16;3.43;;;3.13;;
15931;SDS011;8065;49.520;11.284;2023-11-21T12:56:45;2.73;;;2.53;;
15931;SDS011;8065;49.520;11.284;2023-11-21T12:59:15;3.53;;;2.50;;
15931;SDS011;8065;49.520;11.284;2023-11-21T13:01:43;4.93;;;3.10;;
15931;SDS011;8065;49.520;11.284;2023-11-21T13:04:12;8.33;;;7.13;;
15931;SDS011;8065;49.520;11.284;2023-11-21T13:06:43;7.63;;;5.40;;
15931;SDS011;8065;49.520;11.284;2023-11-21T13:09:11;5.63;;;4.50;;
15931;SDS011;8065;49.520;11.284;2023-11-21T13:11:46;3.50;;;3.20;;
15931;SDS011;8065;49.520;11.284;2023-11-21T13:14:14;2.97;;;2.70;;
15931;SDS011;8065;49.520;11.284;2023-11-21T13:16:43;2.67;;;2.10;;
15931;SDS011;8065;49.520;11.284;2023-11-21T13:19:11;2.27;;;2.07;;
15931;SDS011;8065;49.520;11.284;2023-11-21T13:21:39;2.10;;;1.90;;
15931;SDS011;8065;49.520;11.284;2023-11-21T13:24:11;4.97;;;4.47;;
15931;SDS011;8065;49.520;11.284;2023-11-21T13:26:39;4.50;;;3.73;;
15931;SDS011;8065;49.520;11.284;2023-11-21T13:29:10;2.80;;;2.60;;
15931;SDS011;8065;49.520;11.284;2023-11-21T13:31:39;3.07;;;2.73;;
15931;SDS011;8065;49.520;11.284;2023-11-21T13:34:07;2.83;;;2.27;;
15931;SDS011;8065;49.520;11.284;2023-11-21T13:36:39;2.03;;;1.90;;
15931;SDS011;8065;49.520;11.284;2023-11-21T13:39:12;2.60;;;1.90;;
15931;SDS011;8065;49.520;11.284;2023-11-21T13:41:41;1.77;;;1.67;;
15931;SDS011;8065;49.520;11.284;2023-11-21T13:44:13;3.50;;;1.70;;
15931;SDS011;8065;49.520;11.284;2023-11-21T13:46:51;1.77;;;1.67;;
15931;SDS011;8065;49.520;11.284;2023-11-21T13:49:21;3.03;;;1.87;;
15931;SDS011;8065;49.520;11.284;2023-11-21T13:51:51;1.93;;;1.83;;
15931;SDS011;8065;49.520;11.284;2023-11-21T13:54:22;2.37;;;1.50;;
15931;SDS011;8065;49.520;11.284;2023-11-21T13:56:52;2.37;;;1.70;;
15931;SDS011;8065;49.520;11.284;2023-11-21T13:59:20;2.37;;;1.60;;
15931;SDS011;8065;49.520;11.284;2023-11-21T14:01:51;2.63;;;1.70;;
15931;SDS011;8065;49.520;11.284;2023-11-21T14:04:24;1.60;;;1.50;;
15931;SDS011;8065;49.520;11.284;2023-11-21T14:07:12;2.10;;;1.60;;
15931;SDS011;8065;49.520;11.284;2023-11-21T14:09:54;1.63;;;1.30;;
15931;SDS011;8065;49.520;11.284;2023-11-21T14:12:23;1.50;;;1.40;;
15931;SDS011;8065;49.520;11.284;2023-11-21T14:14:51;1.60;;;1.50;;
15931;SDS011;8065;49.520;11.284;2023-11-21T14:17:20;4.33;;;1.37;;
15931;SDS011;8065;49.520;11.284;2023-11-21T14:19:49;3.47;;;1.50;;
15931;SDS011;8065;49.520;11.284;2023-11-21T14:22:17;1.80;;;1.60;;
15931;SDS011;8065;49.520;11.284;2023-11-21T14:24:46;1.40;;;1.30;;
15931;SDS011;8065;49.520;11.284;2023-11-21T14:27:20;2.17;;;1.97;;
15931;SDS011;8065;49.520;11.284;2023-11-21T14:29:48;2.30;;;1.60;;
15931;SDS011;8065;49.520;11.284;2023-11-21T14:32:17;1.87;;;1.77;;
15931;SDS011;8065;49.520;11.284;2023-11-21T14:34:46;1.60;;;1.50;;
15931;SDS011;8065;49.520;11.284;2023-11-21T14:37:15;2.37;;;1.50;;
15931;SDS011;8065;49.520;11.284;2023-11-21T14:39:44;3.80;;;1.70;;
15931;SDS011;8065;49.520;11.284;2023-11-21T14:42:14;2.37;;;2.10;;
15931;SDS011;8065;49.520;11.284;2023-11-21T14:44:52;2.73;;;2.20;;
15931;SDS011;8065;49.520;11.284;2023-11-21T14:47:25;2.60;;;1.83;;
15931;SDS011;8065;49.520;11.284;2023-11-21T14:49:53;2.17;;;1.50;;
15931;SDS011;8065;49.520;11.284;2023-11-21T14:52:24;2.93;;;1.70;;
15931;SDS011;8065;49.520;11.284;2023-11-21T14:54:58;2.73;;;1.53;;
15931;SDS011;8065;49.520;11.284;2023-11-21T14:57:45;1.57;;;1.30;;
15931;SDS011;8065;49.520;11.284;2023-11-21T15:00:18;3.03;;;1.93;;
15931;SDS011;8065;49.520;11.284;2023-11-21T15:03:09;3.30;;;1.77;;
15931;SDS011;8065;49.520;11.284;2023-11-21T15:05:40;2.30;;;1.87;;
15931;SDS011;8065;49.520;11.284;2023-11-21T15:08:08;2.43;;;1.70;;